sensor_id;sensor_type;location;lat;lon;timestamp;P1;durP1;ratioP1;P2;durP2;ratioP2
6376;SDS011;3221;48.858;10.128;2022-12-05T00:01:24;17.33;;;10.43;;
6376;SDS011;3221;48.858;10.128;2022-12-05T00:03:52;16.37;;;10.60;;
6376;SDS011;3221;48.858;10.128;2022-12-05T00:06:22;18.17;;;11.20;;
6376;SDS011;3221;48.858;10.128;2022-12-05T00:08:50;21.93;;;12.40;;
6376;SDS011;3221;48.858;10.128;2022-12-05T00:11:19;20.10;;;11.70;;
6376;SDS011;3221;48.858;10.128;2022-12-05T00:13:47;24.17;;;14.00;;
6376;SDS011;3221;48.858;10.128;2022-12-05T00:16:16;22.27;;;13.20;;
6376;SDS011;3221;48.858;10.128;2022-12-05T00:18:45;22.07;;;13.07;;
6376;SDS011;3221;48.858;10.128;2022-12-05T00:21:13;23.33;;;14.00;;
6376;SDS011;3221;48.858;10.128;2022-12-05T00:23:42;23.20;;;13.40;;
6376;SDS011;3221;48.858;10.128;2022-12-05T00:26:09;24.57;;;13.17;;
6376;SDS011;3221;48.858;10.128;2022-12-05T00:28:36;22.57;;;13.33;;
6376;SDS011;3221;48.858;10.128;2022-12-05T00:31:09;23.63;;;13.87;;
6376;SDS011;3221;48.858;10.128;2022-12-05T00:33:42;21.83;;;13.43;;
6376;SDS011;3221;48.858;10.128;2022-12-05T00:36:12;19.80;;;12.50;;
6376;SDS011;3221;48.858;10.128;2022-12-05T00:38:40;22.30;;;12.97;;
6376;SDS011;3221;48.858;10.128;2022-12-05T00:41:11;23.43;;;13.57;;
6376;SDS011;3221;48.858;10.128;2022-12-05T00:43:39;22.23;;;13.37;;
6376;SDS011;3221;48.858;10.128;2022-12-05T00:46:08;24.10;;;13.53;;
6376;SDS011;3221;48.858;10.128;2022-12-05T00:48:37;23.57;;;14.13;;
6376;SDS011;3221;48.858;10.128;2022-12-05T00:51:05;22.50;;;13.27;;
6376;SDS011;3221;48.858;10.128;2022-12-05T00:53:45;21.97;;;13.00;;
6376;SDS011;3221;48.858;10.128;2022-12-05T00:56:14;24.87;;;13.93;;
6376;SDS011;3221;48.858;10.128;2022-12-05T00:58:46;22.03;;;13.50;;
6376;SDS011;3221;48.858;10.128;2022-12-05T01:03:45;22.47;;;13.53;;
6376;SDS011;3221;48.858;10.128;2022-12-05T01:06:14;20.70;;;13.10;;
6376;SDS011;3221;48.858;10.128;2022-12-05T01:08:41;21.47;;;12.63;;
6376;SDS011;3221;48.858;10.128;2022-12-05T01:11:09;20.13;;;12.83;;
6376;SDS011;3221;48.858;10.128;2022-12-05T01:13:39;20.60;;;11.83;;
6376;SDS011;3221;48.858;10.128;2022-12-05T01:16:06;20.20;;;12.40;;
6376;SDS011;3221;48.858;10.128;2022-12-05T01:18:42;20.80;;;12.87;;
6376;SDS011;3221;48.858;10.128;2022-12-05T01:21:09;20.50;;;12.97;;
6376;SDS011;3221;48.858;10.128;2022-12-05T01:23:36;20.60;;;12.83;;
6376;SDS011;3221;48.858;10.128;2022-12-05T01:26:04;22.20;;;12.97;;
6376;SDS011;3221;48.858;10.128;2022-12-05T01:28:34;19.73;;;12.03;;
6376;SDS011;3221;48.858;10.128;2022-12-05T01:31:05;24.27;;;13.80;;
6376;SDS011;3221;48.858;10.128;2022-12-05T01:33:33;23.33;;;13.37;;
6376;SDS011;3221;48.858;10.128;2022-12-05T01:36:01;21.67;;;13.23;;
6376;SDS011;3221;48.858;10.128;2022-12-05T01:38:29;21.57;;;13.67;;
6376;SDS011;3221;48.858;10.128;2022-12-05T01:40:59;21.23;;;13.43;;
6376;SDS011;3221;48.858;10.128;2022-12-05T01:43:28;22.83;;;14.10;;
6376;SDS011;3221;48.858;10.128;2022-12-05T01:45:55;26.93;;;15.13;;
6376;SDS011;3221;48.858;10.128;2022-12-05T01:48:32;26.83;;;15.87;;
6376;SDS011;3221;48.858;10.128;2022-12-05T01:51:01;25.23;;;14.60;;
6376;SDS011;3221;48.858;10.128;2022-12-05T01:53:28;24.87;;;14.63;;
6376;SDS011;3221;48.858;10.128;2022-12-05T01:55:55;24.33;;;14.90;;
6376;SDS011;3221;48.858;10.128;2022-12-05T01:58:23;23.33;;;15.00;;
6376;SDS011;3221;48.858;10.128;2022-12-05T02:00:56;24.70;;;14.90;;
6376;SDS011;3221;48.858;10.128;2022-12-05T02:03:23;26.77;;;15.13;;
6376;SDS011;3221;48.858;10.128;2022-12-05T02:05:50;23.73;;;14.47;;
6376;SDS011;3221;48.858;10.128;2022-12-05T02:08:20;25.40;;;14.83;;
6376;SDS011;3221;48.858;10.128;2022-12-05T02:10:51;27.03;;;16.40;;
6376;SDS011;3221;48.858;10.128;2022-12-05T02:33:32;24.87;;;14.90;;
6376;SDS011;3221;48.858;10.128;2022-12-05T02:41:33;21.67;;;13.23;;
6376;SDS011;3221;48.858;10.128;2022-12-05T02:44:17;22.87;;;13.43;;
6376;SDS011;3221;48.858;10.128;2022-12-05T02:46:49;19.63;;;12.80;;
6376;SDS011;3221;48.858;10.128;2022-12-05T02:49:19;19.90;;;13.13;;
6376;SDS011;3221;48.858;10.128;2022-12-05T02:51:54;22.23;;;13.43;;
6376;SDS011;3221;48.858;10.128;2022-12-05T02:54:25;22.33;;;13.97;;
6376;SDS011;3221;48.858;10.128;2022-12-05T02:56:55;22.27;;;13.87;;
6376;SDS011;3221;48.858;10.128;2022-12-05T02:59:24;24.30;;;13.70;;
6376;SDS011;3221;48.858;10.128;2022-12-05T03:01:51;20.57;;;12.47;;
6376;SDS011;3221;48.858;10.128;2022-12-05T03:04:20;21.17;;;12.93;;
6376;SDS011;3221;48.858;10.128;2022-12-05T03:06:53;19.27;;;12.47;;
6376;SDS011;3221;48.858;10.128;2022-12-05T03:12:12;17.60;;;12.00;;
6376;SDS011;3221;48.858;10.128;2022-12-05T03:17:32;18.93;;;12.03;;
6376;SDS011;3221;48.858;10.128;2022-12-05T03:20:06;18.47;;;11.67;;
6376;SDS011;3221;48.858;10.128;2022-12-05T03:22:41;18.97;;;11.93;;
6376;SDS011;3221;48.858;10.128;2022-12-05T03:25:17;19.17;;;11.93;;
6376;SDS011;3221;48.858;10.128;2022-12-05T03:27:53;18.33;;;11.37;;
6376;SDS011;3221;48.858;10.128;2022-12-05T03:30:31;18.63;;;12.13;;
6376;SDS011;3221;48.858;10.128;2022-12-05T03:33:08;16.23;;;11.10;;
6376;SDS011;3221;48.858;10.128;2022-12-05T03:38:34;15.00;;;10.00;;
6376;SDS011;3221;48.858;10.128;2022-12-05T03:41:31;14.63;;;9.63;;
6376;SDS011;3221;48.858;10.128;2022-12-05T03:44:13;16.20;;;10.47;;
6376;SDS011;3221;48.858;10.128;2022-12-05T03:47:02;15.00;;;9.67;;
6376;SDS011;3221;48.858;10.128;2022-12-05T03:49:37;14.57;;;9.27;;
6376;SDS011;3221;48.858;10.128;2022-12-05T03:52:19;15.47;;;9.17;;
6376;SDS011;3221;48.858;10.128;2022-12-05T03:55:19;15.07;;;9.43;;
6376;SDS011;3221;48.858;10.128;2022-12-05T03:57:55;14.60;;;9.13;;
6376;SDS011;3221;48.858;10.128;2022-12-05T04:00:44;14.30;;;8.90;;
6376;SDS011;3221;48.858;10.128;2022-12-05T04:06:33;13.07;;;8.53;;
6376;SDS011;3221;48.858;10.128;2022-12-05T04:09:14;13.33;;;8.90;;
6376;SDS011;3221;48.858;10.128;2022-12-05T04:11:47;14.07;;;9.00;;
6376;SDS011;3221;48.858;10.128;2022-12-05T04:14:21;13.63;;;8.73;;
6376;SDS011;3221;48.858;10.128;2022-12-05T04:17:39;12.80;;;8.90;;
6376;SDS011;3221;48.858;10.128;2022-12-05T04:22:54;13.47;;;8.60;;
6376;SDS011;3221;48.858;10.128;2022-12-05T04:25:21;13.07;;;8.97;;
6376;SDS011;3221;48.858;10.128;2022-12-05T04:30:31;13.17;;;8.83;;
6376;SDS011;3221;48.858;10.128;2022-12-05T04:33:20;13.80;;;8.70;;
6376;SDS011;3221;48.858;10.128;2022-12-05T04:36:00;13.33;;;8.60;;
6376;SDS011;3221;48.858;10.128;2022-12-05T04:38:48;13.37;;;8.80;;
6376;SDS011;3221;48.858;10.128;2022-12-05T04:41:25;13.43;;;8.50;;
6376;SDS011;3221;48.858;10.128;2022-12-05T04:44:03;12.73;;;8.33;;
6376;SDS011;3221;48.858;10.128;2022-12-05T04:46:34;12.83;;;8.47;;
6376;SDS011;3221;48.858;10.128;2022-12-05T04:49:04;13.03;;;8.20;;
6376;SDS011;3221;48.858;10.128;2022-12-05T04:51:34;13.43;;;8.77;;
6376;SDS011;3221;48.858;10.128;2022-12-05T04:54:05;12.93;;;8.10;;
6376;SDS011;3221;48.858;10.128;2022-12-05T04:56:39;12.83;;;8.33;;
6376;SDS011;3221;48.858;10.128;2022-12-05T04:59:09;14.73;;;8.73;;
6376;SDS011;3221;48.858;10.128;2022-12-05T05:01:37;13.10;;;8.20;;
6376;SDS011;3221;48.858;10.128;2022-12-05T05:04:18;13.40;;;8.03;;
6376;SDS011;3221;48.858;10.128;2022-12-05T05:06:50;11.53;;;7.90;;
6376;SDS011;3221;48.858;10.128;2022-12-05T05:09:17;11.07;;;7.63;;
6376;SDS011;3221;48.858;10.128;2022-12-05T05:11:43;11.80;;;7.93;;
6376;SDS011;3221;48.858;10.128;2022-12-05T05:14:10;10.90;;;7.67;;
6376;SDS011;3221;48.858;10.128;2022-12-05T05:16:38;10.57;;;7.17;;
6376;SDS011;3221;48.858;10.128;2022-12-05T05:19:06;11.53;;;7.37;;
6376;SDS011;3221;48.858;10.128;2022-12-05T05:21:35;10.47;;;7.13;;
6376;SDS011;3221;48.858;10.128;2022-12-05T05:24:04;11.50;;;7.20;;
6376;SDS011;3221;48.858;10.128;2022-12-05T05:26:33;11.17;;;7.63;;
6376;SDS011;3221;48.858;10.128;2022-12-05T05:29:02;11.93;;;7.40;;
6376;SDS011;3221;48.858;10.128;2022-12-05T05:31:29;9.73;;;6.83;;
6376;SDS011;3221;48.858;10.128;2022-12-05T05:33:56;10.40;;;6.90;;
6376;SDS011;3221;48.858;10.128;2022-12-05T05:36:25;10.47;;;6.67;;
6376;SDS011;3221;48.858;10.128;2022-12-05T05:38:53;11.23;;;7.30;;
6376;SDS011;3221;48.858;10.128;2022-12-05T05:41:29;11.83;;;7.47;;
6376;SDS011;3221;48.858;10.128;2022-12-05T05:43:57;10.90;;;7.07;;
6376;SDS011;3221;48.858;10.128;2022-12-05T05:46:26;11.87;;;7.27;;
6376;SDS011;3221;48.858;10.128;2022-12-05T05:48:55;10.70;;;6.90;;
6376;SDS011;3221;48.858;10.128;2022-12-05T05:51:22;10.93;;;7.27;;
6376;SDS011;3221;48.858;10.128;2022-12-05T05:53:51;10.67;;;7.30;;
6376;SDS011;3221;48.858;10.128;2022-12-05T05:56:18;12.17;;;7.57;;
6376;SDS011;3221;48.858;10.128;2022-12-05T05:58:47;10.17;;;7.00;;
6376;SDS011;3221;48.858;10.128;2022-12-05T06:01:20;12.20;;;6.57;;
6376;SDS011;3221;48.858;10.128;2022-12-05T06:03:47;11.80;;;7.63;;
6376;SDS011;3221;48.858;10.128;2022-12-05T06:06:16;10.23;;;6.77;;
6376;SDS011;3221;48.858;10.128;2022-12-05T06:08:43;9.63;;;6.70;;
6376;SDS011;3221;48.858;10.128;2022-12-05T06:11:15;10.47;;;6.97;;
6376;SDS011;3221;48.858;10.128;2022-12-05T06:13:51;11.47;;;7.27;;
6376;SDS011;3221;48.858;10.128;2022-12-05T06:16:19;11.80;;;7.23;;
6376;SDS011;3221;48.858;10.128;2022-12-05T06:18:47;11.73;;;7.43;;
6376;SDS011;3221;48.858;10.128;2022-12-05T06:21:15;12.07;;;7.37;;
6376;SDS011;3221;48.858;10.128;2022-12-05T06:23:42;11.40;;;7.30;;
6376;SDS011;3221;48.858;10.128;2022-12-05T06:26:10;10.67;;;7.17;;
6376;SDS011;3221;48.858;10.128;2022-12-05T06:28:39;12.60;;;7.70;;
6376;SDS011;3221;48.858;10.128;2022-12-05T06:31:10;11.63;;;7.50;;
6376;SDS011;3221;48.858;10.128;2022-12-05T06:33:39;11.77;;;7.93;;
6376;SDS011;3221;48.858;10.128;2022-12-05T06:36:08;13.80;;;8.30;;
6376;SDS011;3221;48.858;10.128;2022-12-05T06:38:36;11.87;;;7.60;;
6376;SDS011;3221;48.858;10.128;2022-12-05T06:41:09;13.03;;;8.03;;
6376;SDS011;3221;48.858;10.128;2022-12-05T06:43:39;11.03;;;7.27;;
6376;SDS011;3221;48.858;10.128;2022-12-05T06:46:07;13.87;;;8.47;;
6376;SDS011;3221;48.858;10.128;2022-12-05T06:48:34;11.70;;;7.63;;
6376;SDS011;3221;48.858;10.128;2022-12-05T06:51:01;12.57;;;7.90;;
6376;SDS011;3221;48.858;10.128;2022-12-05T06:53:29;12.30;;;7.83;;
6376;SDS011;3221;48.858;10.128;2022-12-05T06:55:56;11.80;;;7.80;;
6376;SDS011;3221;48.858;10.128;2022-12-05T06:58:24;11.17;;;7.57;;
6376;SDS011;3221;48.858;10.128;2022-12-05T07:00:52;12.63;;;7.73;;
6376;SDS011;3221;48.858;10.128;2022-12-05T07:03:37;13.13;;;8.27;;
6376;SDS011;3221;48.858;10.128;2022-12-05T07:06:05;11.63;;;7.83;;
6376;SDS011;3221;48.858;10.128;2022-12-05T07:08:32;12.67;;;7.97;;
6376;SDS011;3221;48.858;10.128;2022-12-05T07:11:00;13.33;;;8.23;;
6376;SDS011;3221;48.858;10.128;2022-12-05T07:13:28;12.30;;;7.70;;
6376;SDS011;3221;48.858;10.128;2022-12-05T07:15:55;13.43;;;8.23;;
6376;SDS011;3221;48.858;10.128;2022-12-05T07:18:24;13.63;;;8.00;;
6376;SDS011;3221;48.858;10.128;2022-12-05T07:20:58;12.83;;;8.37;;
6376;SDS011;3221;48.858;10.128;2022-12-05T07:23:38;12.60;;;7.63;;
6376;SDS011;3221;48.858;10.128;2022-12-05T07:26:06;12.50;;;8.20;;
6376;SDS011;3221;48.858;10.128;2022-12-05T07:28:34;13.00;;;8.37;;
6376;SDS011;3221;48.858;10.128;2022-12-05T07:31:06;13.03;;;8.50;;
6376;SDS011;3221;48.858;10.128;2022-12-05T07:33:35;13.20;;;8.57;;
6376;SDS011;3221;48.858;10.128;2022-12-05T07:36:07;14.97;;;9.00;;
6376;SDS011;3221;48.858;10.128;2022-12-05T07:38:36;13.33;;;7.83;;
6376;SDS011;3221;48.858;10.128;2022-12-05T07:41:07;13.07;;;8.23;;
6376;SDS011;3221;48.858;10.128;2022-12-05T07:43:39;12.97;;;8.47;;
6376;SDS011;3221;48.858;10.128;2022-12-05T07:46:07;13.77;;;8.83;;
6376;SDS011;3221;48.858;10.128;2022-12-05T07:48:36;12.40;;;8.43;;
6376;SDS011;3221;48.858;10.128;2022-12-05T07:51:04;12.67;;;8.40;;
6376;SDS011;3221;48.858;10.128;2022-12-05T07:53:32;13.73;;;9.07;;
6376;SDS011;3221;48.858;10.128;2022-12-05T07:56:00;15.07;;;9.23;;
6376;SDS011;3221;48.858;10.128;2022-12-05T07:58:29;14.27;;;9.13;;
6376;SDS011;3221;48.858;10.128;2022-12-05T08:01:04;14.13;;;9.33;;
6376;SDS011;3221;48.858;10.128;2022-12-05T08:03:36;14.87;;;9.40;;
6376;SDS011;3221;48.858;10.128;2022-12-05T08:06:04;16.30;;;9.77;;
6376;SDS011;3221;48.858;10.128;2022-12-05T08:08:32;14.90;;;9.37;;
6376;SDS011;3221;48.858;10.128;2022-12-05T08:11:03;14.43;;;9.27;;
6376;SDS011;3221;48.858;10.128;2022-12-05T08:13:32;13.77;;;8.63;;
6376;SDS011;3221;48.858;10.128;2022-12-05T08:16:00;14.50;;;9.17;;
6376;SDS011;3221;48.858;10.128;2022-12-05T08:18:31;15.30;;;9.80;;
6376;SDS011;3221;48.858;10.128;2022-12-05T08:21:05;14.27;;;8.87;;
6376;SDS011;3221;48.858;10.128;2022-12-05T08:23:33;12.93;;;8.17;;
6376;SDS011;3221;48.858;10.128;2022-12-05T08:26:05;14.17;;;9.10;;
6376;SDS011;3221;48.858;10.128;2022-12-05T08:28:37;13.00;;;8.30;;
6376;SDS011;3221;48.858;10.128;2022-12-05T08:33:35;12.90;;;8.23;;
6376;SDS011;3221;48.858;10.128;2022-12-05T08:36:03;13.97;;;8.70;;
6376;SDS011;3221;48.858;10.128;2022-12-05T08:38:33;12.83;;;8.30;;
6376;SDS011;3221;48.858;10.128;2022-12-05T08:41:00;13.33;;;8.13;;
6376;SDS011;3221;48.858;10.128;2022-12-05T08:43:28;11.13;;;7.90;;
6376;SDS011;3221;48.858;10.128;2022-12-05T08:45:56;12.50;;;7.33;;
6376;SDS011;3221;48.858;10.128;2022-12-05T08:48:23;11.50;;;8.07;;
6376;SDS011;3221;48.858;10.128;2022-12-05T08:50:55;12.27;;;7.90;;
6376;SDS011;3221;48.858;10.128;2022-12-05T08:53:22;12.33;;;8.07;;
6376;SDS011;3221;48.858;10.128;2022-12-05T08:55:49;13.33;;;8.00;;
6376;SDS011;3221;48.858;10.128;2022-12-05T08:58:16;11.57;;;7.40;;
6376;SDS011;3221;48.858;10.128;2022-12-05T09:00:43;13.13;;;8.30;;
6376;SDS011;3221;48.858;10.128;2022-12-05T09:03:10;12.97;;;8.70;;
6376;SDS011;3221;48.858;10.128;2022-12-05T09:05:38;13.40;;;8.93;;
6376;SDS011;3221;48.858;10.128;2022-12-05T09:08:05;11.93;;;7.70;;
6376;SDS011;3221;48.858;10.128;2022-12-05T09:10:32;14.60;;;8.27;;
6376;SDS011;3221;48.858;10.128;2022-12-05T09:12:59;11.87;;;7.53;;
6376;SDS011;3221;48.858;10.128;2022-12-05T09:15:26;15.23;;;9.10;;
6376;SDS011;3221;48.858;10.128;2022-12-05T09:17:53;12.00;;;8.43;;
6376;SDS011;3221;48.858;10.128;2022-12-05T09:20:20;12.20;;;8.23;;
6376;SDS011;3221;48.858;10.128;2022-12-05T09:22:47;11.83;;;8.20;;
6376;SDS011;3221;48.858;10.128;2022-12-05T09:25:14;14.50;;;9.47;;
6376;SDS011;3221;48.858;10.128;2022-12-05T09:27:41;13.10;;;8.77;;
6376;SDS011;3221;48.858;10.128;2022-12-05T09:30:08;12.60;;;8.17;;
6376;SDS011;3221;48.858;10.128;2022-12-05T09:32:35;13.03;;;8.20;;
6376;SDS011;3221;48.858;10.128;2022-12-05T09:35:02;12.37;;;8.43;;
6376;SDS011;3221;48.858;10.128;2022-12-05T09:37:29;11.63;;;7.60;;
6376;SDS011;3221;48.858;10.128;2022-12-05T09:40:05;11.90;;;8.17;;
6376;SDS011;3221;48.858;10.128;2022-12-05T09:45:34;12.50;;;8.03;;
6376;SDS011;3221;48.858;10.128;2022-12-05T09:48:08;11.93;;;7.80;;
6376;SDS011;3221;48.858;10.128;2022-12-05T09:50:43;13.33;;;8.30;;
6376;SDS011;3221;48.858;10.128;2022-12-05T09:55:48;13.77;;;8.37;;
6376;SDS011;3221;48.858;10.128;2022-12-05T10:01:09;12.00;;;8.03;;
6376;SDS011;3221;48.858;10.128;2022-12-05T10:09:35;11.67;;;7.93;;
6376;SDS011;3221;48.858;10.128;2022-12-05T10:12:32;12.70;;;8.43;;
6376;SDS011;3221;48.858;10.128;2022-12-05T10:15:13;11.63;;;7.77;;
6376;SDS011;3221;48.858;10.128;2022-12-05T10:21:00;12.93;;;7.50;;
6376;SDS011;3221;48.858;10.128;2022-12-05T10:24:02;11.97;;;8.27;;
6376;SDS011;3221;48.858;10.128;2022-12-05T10:26:42;12.50;;;8.07;;
6376;SDS011;3221;48.858;10.128;2022-12-05T10:29:21;11.97;;;8.07;;
6376;SDS011;3221;48.858;10.128;2022-12-05T10:31:55;10.60;;;7.30;;
6376;SDS011;3221;48.858;10.128;2022-12-05T10:34:37;11.93;;;8.07;;
6376;SDS011;3221;48.858;10.128;2022-12-05T10:37:15;10.50;;;7.43;;
6376;SDS011;3221;48.858;10.128;2022-12-05T10:39:47;11.93;;;8.60;;
6376;SDS011;3221;48.858;10.128;2022-12-05T10:42:18;10.50;;;7.40;;
6376;SDS011;3221;48.858;10.128;2022-12-05T10:44:57;11.27;;;7.50;;
6376;SDS011;3221;48.858;10.128;2022-12-05T10:47:28;9.70;;;7.00;;
6376;SDS011;3221;48.858;10.128;2022-12-05T10:49:57;11.77;;;7.87;;
6376;SDS011;3221;48.858;10.128;2022-12-05T10:52:29;9.63;;;7.10;;
6376;SDS011;3221;48.858;10.128;2022-12-05T10:54:57;11.90;;;7.37;;
6376;SDS011;3221;48.858;10.128;2022-12-05T10:57:28;10.93;;;7.00;;
6376;SDS011;3221;48.858;10.128;2022-12-05T10:59:55;9.03;;;6.70;;
6376;SDS011;3221;48.858;10.128;2022-12-05T11:02:27;9.97;;;7.17;;
6376;SDS011;3221;48.858;10.128;2022-12-05T11:04:56;9.97;;;6.60;;
6376;SDS011;3221;48.858;10.128;2022-12-05T11:07:26;10.17;;;6.60;;
6376;SDS011;3221;48.858;10.128;2022-12-05T11:09:57;10.50;;;7.07;;
6376;SDS011;3221;48.858;10.128;2022-12-05T11:17:33;10.20;;;7.37;;
6376;SDS011;3221;48.858;10.128;2022-12-05T11:22:46;10.23;;;7.23;;
6376;SDS011;3221;48.858;10.128;2022-12-05T11:27:56;9.00;;;6.47;;
6376;SDS011;3221;48.858;10.128;2022-12-05T11:30:27;9.37;;;6.67;;
6376;SDS011;3221;48.858;10.128;2022-12-05T11:33:14;8.60;;;7.27;;
6376;SDS011;3221;48.858;10.128;2022-12-05T11:35:49;8.70;;;6.70;;
6376;SDS011;3221;48.858;10.128;2022-12-05T11:38:18;9.77;;;7.10;;
6376;SDS011;3221;48.858;10.128;2022-12-05T11:49:24;14.13;;;9.20;;
6376;SDS011;3221;48.858;10.128;2022-12-05T11:55:23;12.93;;;8.73;;
6376;SDS011;3221;48.858;10.128;2022-12-05T11:58:45;12.73;;;8.40;;
6376;SDS011;3221;48.858;10.128;2022-12-05T12:09:36;10.90;;;8.47;;
6376;SDS011;3221;48.858;10.128;2022-12-05T12:18:22;11.97;;;8.50;;
6376;SDS011;3221;48.858;10.128;2022-12-05T12:21:07;10.33;;;7.70;;
6376;SDS011;3221;48.858;10.128;2022-12-05T12:37:30;9.53;;;7.73;;
6376;SDS011;3221;48.858;10.128;2022-12-05T12:51:15;13.60;;;10.00;;
6376;SDS011;3221;48.858;10.128;2022-12-05T12:58:53;10.33;;;7.60;;
6376;SDS011;3221;48.858;10.128;2022-12-05T13:01:46;10.07;;;8.00;;
6376;SDS011;3221;48.858;10.128;2022-12-05T13:04:33;11.80;;;8.27;;
6376;SDS011;3221;48.858;10.128;2022-12-05T13:07:17;12.10;;;8.63;;
6376;SDS011;3221;48.858;10.128;2022-12-05T13:09:55;10.27;;;7.80;;
6376;SDS011;3221;48.858;10.128;2022-12-05T13:12:30;11.27;;;8.30;;
6376;SDS011;3221;48.858;10.128;2022-12-05T13:15:04;14.47;;;10.17;;
6376;SDS011;3221;48.858;10.128;2022-12-05T13:17:39;12.83;;;9.33;;
6376;SDS011;3221;48.858;10.128;2022-12-05T13:20:21;12.37;;;9.27;;
6376;SDS011;3221;48.858;10.128;2022-12-05T13:22:50;13.27;;;10.07;;
6376;SDS011;3221;48.858;10.128;2022-12-05T13:25:18;16.30;;;11.03;;
6376;SDS011;3221;48.858;10.128;2022-12-05T13:27:53;14.93;;;10.30;;
6376;SDS011;3221;48.858;10.128;2022-12-05T13:30:22;13.27;;;9.17;;
6376;SDS011;3221;48.858;10.128;2022-12-05T13:32:57;15.00;;;10.47;;
6376;SDS011;3221;48.858;10.128;2022-12-05T13:35:33;14.77;;;10.03;;
6376;SDS011;3221;48.858;10.128;2022-12-05T13:38:21;13.77;;;10.10;;
6376;SDS011;3221;48.858;10.128;2022-12-05T13:41:11;14.13;;;9.77;;
6376;SDS011;3221;48.858;10.128;2022-12-05T13:43:57;12.43;;;8.90;;
6376;SDS011;3221;48.858;10.128;2022-12-05T13:46:32;13.03;;;9.87;;
6376;SDS011;3221;48.858;10.128;2022-12-05T13:49:04;14.20;;;10.27;;
6376;SDS011;3221;48.858;10.128;2022-12-05T13:51:43;22.20;;;12.43;;
6376;SDS011;3221;48.858;10.128;2022-12-05T13:54:12;16.50;;;11.70;;
6376;SDS011;3221;48.858;10.128;2022-12-05T13:56:48;16.83;;;11.10;;
6376;SDS011;3221;48.858;10.128;2022-12-05T14:03:05;13.27;;;9.60;;
6376;SDS011;3221;48.858;10.128;2022-12-05T14:07:56;12.70;;;9.60;;
6376;SDS011;3221;48.858;10.128;2022-12-05T14:13:37;16.47;;;10.93;;
6376;SDS011;3221;48.858;10.128;2022-12-05T14:15:49;12.37;;;8.77;;
6376;SDS011;3221;48.858;10.128;2022-12-05T14:18:19;15.07;;;9.80;;
6376;SDS011;3221;48.858;10.128;2022-12-05T14:21:12;12.27;;;8.70;;
6376;SDS011;3221;48.858;10.128;2022-12-05T14:29:47;13.13;;;9.20;;
6376;SDS011;3221;48.858;10.128;2022-12-05T14:37:56;13.47;;;10.00;;
6376;SDS011;3221;48.858;10.128;2022-12-05T14:43:16;12.13;;;8.53;;
6376;SDS011;3221;48.858;10.128;2022-12-05T14:48:37;10.10;;;7.80;;
6376;SDS011;3221;48.858;10.128;2022-12-05T14:54:11;10.77;;;8.47;;
6376;SDS011;3221;48.858;10.128;2022-12-05T14:56:43;10.30;;;7.80;;
6376;SDS011;3221;48.858;10.128;2022-12-05T14:59:25;10.90;;;8.17;;
6376;SDS011;3221;48.858;10.128;2022-12-05T15:01:57;10.23;;;8.00;;
6376;SDS011;3221;48.858;10.128;2022-12-05T15:07:17;11.17;;;8.43;;
6376;SDS011;3221;48.858;10.128;2022-12-05T15:09:54;10.57;;;7.50;;
6376;SDS011;3221;48.858;10.128;2022-12-05T15:17:58;9.80;;;7.07;;
6376;SDS011;3221;48.858;10.128;2022-12-05T15:20:40;8.87;;;6.73;;
6376;SDS011;3221;48.858;10.128;2022-12-05T15:23:43;9.40;;;7.07;;
6376;SDS011;3221;48.858;10.128;2022-12-05T15:26:24;9.37;;;7.20;;
6376;SDS011;3221;48.858;10.128;2022-12-05T15:34:30;9.17;;;7.40;;
6376;SDS011;3221;48.858;10.128;2022-12-05T15:42:27;9.10;;;7.23;;
6376;SDS011;3221;48.858;10.128;2022-12-05T15:47:41;9.37;;;7.17;;
6376;SDS011;3221;48.858;10.128;2022-12-05T15:53:00;7.83;;;6.67;;
6376;SDS011;3221;48.858;10.128;2022-12-05T15:58:21;11.97;;;8.27;;
6376;SDS011;3221;48.858;10.128;2022-12-05T16:00:52;10.43;;;7.30;;
6376;SDS011;3221;48.858;10.128;2022-12-05T16:03:49;9.30;;;7.17;;
6376;SDS011;3221;48.858;10.128;2022-12-05T16:08:50;9.50;;;7.67;;
6376;SDS011;3221;48.858;10.128;2022-12-05T16:11:17;11.17;;;8.67;;
6376;SDS011;3221;48.858;10.128;2022-12-05T16:13:48;8.33;;;6.73;;
6376;SDS011;3221;48.858;10.128;2022-12-05T16:16:20;10.77;;;7.60;;
6376;SDS011;3221;48.858;10.128;2022-12-05T16:18:57;11.17;;;8.30;;
6376;SDS011;3221;48.858;10.128;2022-12-05T16:21:40;10.27;;;7.27;;
6376;SDS011;3221;48.858;10.128;2022-12-05T16:24:21;11.07;;;7.70;;
6376;SDS011;3221;48.858;10.128;2022-12-05T16:29:25;9.50;;;7.47;;
6376;SDS011;3221;48.858;10.128;2022-12-05T16:31:58;9.10;;;7.37;;
6376;SDS011;3221;48.858;10.128;2022-12-05T16:34:28;10.50;;;8.10;;
6376;SDS011;3221;48.858;10.128;2022-12-05T16:36:57;10.30;;;7.50;;
6376;SDS011;3221;48.858;10.128;2022-12-05T16:39:25;11.13;;;8.37;;
6376;SDS011;3221;48.858;10.128;2022-12-05T16:41:56;15.37;;;9.30;;
6376;SDS011;3221;48.858;10.128;2022-12-05T16:46:54;13.97;;;9.57;;
6376;SDS011;3221;48.858;10.128;2022-12-05T16:49:32;11.93;;;9.10;;
6376;SDS011;3221;48.858;10.128;2022-12-05T16:54:32;11.63;;;8.50;;
6376;SDS011;3221;48.858;10.128;2022-12-05T16:57:00;12.17;;;9.07;;
6376;SDS011;3221;48.858;10.128;2022-12-05T16:59:37;13.73;;;9.77;;
6376;SDS011;3221;48.858;10.128;2022-12-05T17:02:11;11.80;;;8.87;;
6376;SDS011;3221;48.858;10.128;2022-12-05T17:04:40;13.33;;;9.90;;
6376;SDS011;3221;48.858;10.128;2022-12-05T17:07:07;11.87;;;9.03;;
6376;SDS011;3221;48.858;10.128;2022-12-05T17:09:34;13.00;;;9.50;;
6376;SDS011;3221;48.858;10.128;2022-12-05T17:12:03;13.43;;;9.03;;
6376;SDS011;3221;48.858;10.128;2022-12-05T17:14:36;12.03;;;9.20;;
6376;SDS011;3221;48.858;10.128;2022-12-05T17:17:04;13.57;;;9.47;;
6376;SDS011;3221;48.858;10.128;2022-12-05T17:19:38;13.80;;;9.73;;
6376;SDS011;3221;48.858;10.128;2022-12-05T17:22:05;12.57;;;9.17;;
6376;SDS011;3221;48.858;10.128;2022-12-05T17:24:32;11.80;;;9.07;;
6376;SDS011;3221;48.858;10.128;2022-12-05T17:26:59;12.57;;;10.03;;
6376;SDS011;3221;48.858;10.128;2022-12-05T17:29:26;13.73;;;9.80;;
6376;SDS011;3221;48.858;10.128;2022-12-05T17:32:00;14.33;;;10.30;;
6376;SDS011;3221;48.858;10.128;2022-12-05T17:34:27;14.77;;;10.90;;
6376;SDS011;3221;48.858;10.128;2022-12-05T17:36:55;13.87;;;10.40;;
6376;SDS011;3221;48.858;10.128;2022-12-05T17:39:21;14.03;;;10.47;;
6376;SDS011;3221;48.858;10.128;2022-12-05T17:41:53;17.47;;;10.60;;
6376;SDS011;3221;48.858;10.128;2022-12-05T17:44:20;14.90;;;10.30;;
6376;SDS011;3221;48.858;10.128;2022-12-05T17:46:47;15.03;;;10.53;;
6376;SDS011;3221;48.858;10.128;2022-12-05T17:49:15;13.97;;;10.80;;
6376;SDS011;3221;48.858;10.128;2022-12-05T17:51:43;14.27;;;10.70;;
6376;SDS011;3221;48.858;10.128;2022-12-05T17:54:31;14.90;;;10.80;;
6376;SDS011;3221;48.858;10.128;2022-12-05T17:56:57;15.37;;;10.53;;
6376;SDS011;3221;48.858;10.128;2022-12-05T17:59:24;14.07;;;10.07;;
6376;SDS011;3221;48.858;10.128;2022-12-05T18:01:51;13.27;;;9.67;;
6376;SDS011;3221;48.858;10.128;2022-12-05T18:04:18;13.37;;;10.10;;
6376;SDS011;3221;48.858;10.128;2022-12-05T18:06:48;14.50;;;10.13;;
6376;SDS011;3221;48.858;10.128;2022-12-05T18:09:15;14.80;;;11.47;;
6376;SDS011;3221;48.858;10.128;2022-12-05T18:11:42;16.13;;;10.67;;
6376;SDS011;3221;48.858;10.128;2022-12-05T18:14:09;13.70;;;10.00;;
6376;SDS011;3221;48.858;10.128;2022-12-05T18:16:36;14.33;;;10.80;;
6376;SDS011;3221;48.858;10.128;2022-12-05T18:19:03;16.00;;;10.73;;
6376;SDS011;3221;48.858;10.128;2022-12-05T18:21:30;14.37;;;10.50;;
6376;SDS011;3221;48.858;10.128;2022-12-05T18:23:57;15.07;;;10.67;;
6376;SDS011;3221;48.858;10.128;2022-12-05T18:26:25;13.63;;;9.80;;
6376;SDS011;3221;48.858;10.128;2022-12-05T18:28:52;13.47;;;10.20;;
6376;SDS011;3221;48.858;10.128;2022-12-05T18:31:21;14.70;;;11.00;;
6376;SDS011;3221;48.858;10.128;2022-12-05T18:33:49;13.80;;;10.37;;